Time;durP1;ratioP1;P1;durP2;ratioP2;P2;SDS_P1;SDS_P2;PMS_P1;PMS_P2;Temp;Humidity;BMP_temperature;BMP_pressure;BME280_temperature;BME280_humidity;BME280_pressure;Samples;Min_cycle;Max_cycle;Signal;HPM_P1;HPM_P2
2020/12/26 00:00:37;;;;;;;73.53;16.60;;;-0.20;82.70;;;;;;5054111;28;20216;-67
2020/12/26 00:03:03;;;;;;;78.47;16.90;;;-0.20;81.30;;;;;;5054386;28;20235;-67
2020/12/26 00:05:30;;;;;;;76.75;16.30;;;-0.20;81.20;;;;;;5053920;28;20213;-67
2020/12/26 00:07:56;;;;;;;73.75;16.50;;;-0.20;80.20;;;;;;5053979;28;20222;-66
2020/12/26 00:10:22;;;;;;;75.65;16.58;;;-0.30;79.30;;;;;;5054099;28;20379;-67
2020/12/26 00:12:49;;;;;;;77.78;17.08;;;-0.30;77.50;;;;;;5053831;28;20712;-67
2020/12/26 00:15:16;;;;;;;77.88;17.38;;;-0.30;77.20;;;;;;5054414;28;20211;-67
2020/12/26 00:17:42;;;;;;;75.97;16.60;;;-0.30;76.20;;;;;;5053819;28;20225;-67
2020/12/26 00:20:08;;;;;;;76.32;17.30;;;-0.40;78.30;;;;;;5053610;28;20201;-67
2020/12/26 00:22:35;;;;;;;77.47;17.50;;;-0.40;73.70;;;;;;5058294;28;20210;-67
2020/12/26 00:25:01;;;;;;;75.43;15.60;;;-0.40;72.20;;;;;;5057269;28;20205;-67
2020/12/26 00:27:28;;;;;;;74.45;16.58;;;-0.40;70.20;;;;;;5053845;28;20299;-67
2020/12/26 00:29:55;;;;;;;76.72;16.30;;;-0.40;67.20;;;;;;5053949;28;20209;-67
2020/12/26 00:32:22;;;;;;;72.88;16.15;;;-0.50;67.10;;;;;;5054227;28;20302;-67
2020/12/26 00:34:48;;;;;;;74.60;16.27;;;-0.50;69.60;;;;;;5053486;28;20206;-67
2020/12/26 00:37:16;;;;;;;76.05;16.80;;;-0.50;68.50;;;;;;5053732;28;20279;-67
2020/12/26 00:39:43;;;;;;;73.18;15.15;;;-0.50;64.60;;;;;;5053117;28;20704;-67
2020/12/26 00:42:10;;;;;;;75.03;16.63;;;-0.60;63.50;;;;;;5053656;28;20306;-67
2020/12/26 00:44:36;;;;;;;77.32;16.90;;;-0.60;62.20;;;;;;5053030;28;20202;-67
2020/12/26 00:47:03;;;;;;;74.47;16.45;;;-0.60;61.70;;;;;;5053256;28;20206;-67
2020/12/26 00:49:30;;;;;;;74.60;15.38;;;-0.60;61.10;;;;;;5052986;28;20237;-67
2020/12/26 00:51:56;;;;;;;73.93;16.02;;;-0.60;60.50;;;;;;5053714;28;20213;-67
2020/12/26 00:54:22;;;;;;;73.40;15.15;;;-0.50;61.90;;;;;;5053065;28;20209;-67
2020/12/26 00:56:49;;;;;;;73.68;16.90;;;-0.50;63.20;;;;;;5053579;28;20214;-67
2020/12/26 00:59:15;;;;;;;73.82;15.65;;;-0.50;62.80;;;;;;5052957;28;20225;-67
2020/12/26 01:01:41;;;;;;;77.35;16.88;;;-0.50;63.00;;;;;;5053037;28;20205;-67
2020/12/26 01:04:08;;;;;;;72.38;15.25;;;-0.40;64.10;;;;;;5053319;28;20210;-67
2020/12/26 01:06:35;;;;;;;74.38;16.52;;;-0.40;64.40;;;;;;5053058;28;20617;-67
2020/12/26 01:09:01;;;;;;;73.13;16.90;;;-0.40;64.60;;;;;;5052792;28;20257;-67
2020/12/26 01:11:27;;;;;;;72.10;14.80;;;-0.40;64.90;;;;;;5052813;28;20206;-67
2020/12/26 01:13:54;;;;;;;73.20;15.40;;;-0.40;64.60;;;;;;5052946;28;20214;-67
2020/12/26 01:16:20;;;;;;;78.03;16.95;;;-0.50;64.40;;;;;;5052664;28;20206;-67
2020/12/26 01:18:46;;;;;;;73.35;15.32;;;-0.50;65.30;;;;;;5052818;28;20256;-68
2020/12/26 01:21:17;;;;;;;72.65;14.45;;;-0.50;64.50;;;;;;5052475;28;20699;-67
2020/12/26 01:23:43;;;;;;;71.47;14.82;;;-0.50;64.10;;;;;;5052860;28;20210;-67
2020/12/26 01:26:09;;;;;;;77.70;17.35;;;-0.50;60.50;;;;;;5052657;28;20581;-67
2020/12/26 01:28:36;;;;;;;73.60;16.33;;;-0.50;64.30;;;;;;5052260;28;20224;-67
2020/12/26 01:31:03;;;;;;;74.00;15.45;;;-0.50;63.60;;;;;;5052962;28;20763;-67
2020/12/26 01:33:29;;;;;;;75.75;16.70;;;-0.50;63.70;;;;;;5052576;28;20255;-67
2020/12/26 01:35:55;;;;;;;75.32;16.67;;;-0.50;63.50;;;;;;5052668;28;20607;-67
2020/12/26 01:38:22;;;;;;;76.25;16.23;;;-0.50;64.30;;;;;;5052157;28;20261;-68
2020/12/26 01:40:50;;;;;;;74.00;15.80;;;-0.40;65.00;;;;;;5052219;28;20213;-67
2020/12/26 01:43:17;;;;;;;73.80;16.15;;;-0.40;64.30;;;;;;5052095;28;20214;-67
2020/12/26 01:45:44;;;;;;;74.88;15.73;;;-0.40;65.20;;;;;;5052397;28;20256;-67
2020/12/26 01:48:15;;;;;;;77.47;17.13;;;-0.40;65.90;;;;;;5052292;28;20652;-67
2020/12/26 01:50:42;;;;;;;77.45;16.27;;;-0.40;66.00;;;;;;5051864;28;20734;-67
2020/12/26 01:53:11;;;;;;;72.38;16.98;;;-0.30;67.70;;;;;;5052616;28;20216;-67
2020/12/26 01:55:40;;;;;;;72.32;14.73;;;-0.30;68.10;;;;;;5051983;28;20488;-67
2020/12/26 01:58:12;;;;;;;77.68;15.18;;;-0.30;69.00;;;;;;5051089;28;20229;-67
2020/12/26 02:00:39;;;;;;;76.45;17.13;;;-0.20;70.10;;;;;;5051802;28;20212;-67
2020/12/26 02:03:05;;;;;;;73.85;16.30;;;-0.20;71.20;;;;;;5051976;28;20205;-67
2020/12/26 02:05:32;;;;;;;71.68;15.93;;;-0.20;71.80;;;;;;5051753;28;20201;-67
2020/12/26 02:07:58;;;;;;;73.38;14.70;;;-0.20;72.40;;;;;;5051867;28;20315;-67
2020/12/26 02:10:25;;;;;;;78.30;16.20;;;-0.20;72.90;;;;;;5051208;28;20209;-67
2020/12/26 02:12:52;;;;;;;74.10;15.43;;;-0.10;74.40;;;;;;5052114;28;20216;-67
2020/12/26 02:15:18;;;;;;;72.10;15.23;;;-0.20;74.60;;;;;;5051833;28;20206;-67
2020/12/26 02:17:45;;;;;;;73.60;15.65;;;-0.20;74.00;;;;;;5051528;28;20231;-67
2020/12/26 02:20:11;;;;;;;75.97;15.63;;;-0.20;74.50;;;;;;5051436;28;20210;-67
2020/12/26 02:22:37;;;;;;;73.20;15.57;;;-0.30;74.10;;;;;;5052075;28;20202;-67
2020/12/26 02:25:04;;;;;;;73.32;14.70;;;-0.30;74.20;;;;;;5053415;28;20214;-67
2020/12/26 02:27:31;;;;;;;76.57;16.85;;;-0.30;74.50;;;;;;5052270;28;20252;-67
2020/12/26 02:29:57;;;;;;;70.40;14.10;;;-0.20;73.90;;;;;;5051217;28;20218;-67
2020/12/26 02:32:23;;;;;;;75.13;15.40;;;-0.20;73.90;;;;;;5051511;28;20613;-67
2020/12/26 02:34:50;;;;;;;70.70;13.30;;;-0.20;74.50;;;;;;5051514;28;20237;-67
2020/12/26 02:37:16;;;;;;;74.35;16.45;;;-0.20;74.90;;;;;;5051177;28;20712;-67
2020/12/26 02:39:42;;;;;;;73.78;15.30;;;-0.20;75.60;;;;;;5050869;28;20233;-67
2020/12/26 02:42:09;;;;;;;70.50;13.70;;;-0.20;75.80;;;;;;5074969;22;20229;-67
2020/12/26 02:44:36;;;;;;;72.53;14.82;;;-0.10;76.70;;;;;;5051504;28;20201;-67
2020/12/26 02:47:02;;;;;;;70.75;14.30;;;-0.20;76.90;;;;;;5048415;28;20292;-67
2020/12/26 02:49:28;;;;;;;73.95;14.98;;;-0.20;70.50;;;;;;5050920;28;20206;-67
2020/12/26 02:51:55;;;;;;;73.32;14.05;;;-0.20;77.50;;;;;;5051557;28;20233;-68
2020/12/26 02:54:21;;;;;;;74.05;15.48;;;-0.20;77.50;;;;;;5051164;28;20793;-67
2020/12/26 02:56:47;;;;;;;73.22;14.05;;;-0.20;77.60;;;;;;5051449;28;20205;-68
2020/12/26 02:59:14;;;;;;;76.82;15.60;;;-0.20;79.20;;;;;;5050695;28;20240;-67
2020/12/26 03:01:41;;;;;;;73.47;14.77;;;-0.20;80.30;;;;;;5051404;28;20253;-67
2020/12/26 03:04:08;;;;;;;71.35;14.77;;;-0.20;79.60;;;;;;5051266;28;20215;-68
2020/12/26 03:06:34;;;;;;;71.93;13.90;;;-0.20;80.20;;;;;;5051347;28;20201;-68
2020/12/26 03:09:00;;;;;;;70.25;13.48;;;-0.20;81.60;;;;;;5053204;28;20205;-67
2020/12/26 03:11:27;;;;;;;75.18;14.40;;;-0.20;82.50;;;;;;5055213;28;20229;-68
2020/12/26 03:13:53;;;;;;;72.22;16.00;;;-0.20;84.10;;;;;;5055088;28;20202;-68
2020/12/26 03:16:20;;;;;;;77.30;17.20;;;-0.20;84.90;;;;;;5055372;28;20236;-68
2020/12/26 03:18:47;;;;;;;72.38;14.85;;;-0.10;86.50;;;;;;5055092;28;20267;-68
2020/12/26 03:21:13;;;;;;;72.53;15.00;;;-0.20;86.40;;;;;;5054870;28;20225;-67
2020/12/26 03:23:40;;;;;;;75.53;14.82;;;-0.20;86.60;;;;;;5055098;28;20206;-68
2020/12/26 03:26:06;;;;;;;75.93;15.98;;;-0.20;88.60;;;;;;5054974;28;20580;-67
2020/12/26 03:28:32;;;;;;;73.97;15.30;;;-0.20;86.70;;;;;;5054873;28;20206;-68
2020/12/26 03:30:59;;;;;;;73.75;14.73;;;-0.30;87.10;;;;;;5054810;28;20292;-67
2020/12/26 03:33:26;;;;;;;74.22;14.48;;;-0.30;87.10;;;;;;5054946;28;20645;-67
2020/12/26 03:35:52;;;;;;;74.10;16.65;;;-0.30;87.20;;;;;;5055167;28;20565;-68
2020/12/26 03:38:19;;;;;;;75.80;16.38;;;-0.30;87.30;;;;;;5054837;28;20267;-68
2020/12/26 03:40:45;;;;;;;72.18;14.80;;;-0.30;87.50;;;;;;5061844;28;20216;-68
2020/12/26 03:43:11;;;;;;;74.85;16.40;;;-0.30;87.80;;;;;;5066671;28;20303;-68
2020/12/26 03:45:38;;;;;;;75.55;16.63;;;-0.40;88.70;;;;;;5067462;28;20259;-68
2020/12/26 03:48:04;;;;;;;81.68;16.42;;;-0.30;88.80;;;;;;5066935;28;20209;-68
2020/12/26 03:50:31;;;;;;;77.85;15.73;;;-0.40;88.20;;;;;;5067051;28;20205;-68
2020/12/26 03:52:57;;;;;;;77.32;16.15;;;-0.40;89.10;;;;;;5067110;28;20313;-68
2020/12/26 03:55:24;;;;;;;72.53;14.75;;;-0.40;89.20;;;;;;5067010;28;20702;-68
2020/12/26 03:57:50;;;;;;;75.38;17.05;;;-0.40;89.50;;;;;;5067005;28;20209;-68
2020/12/26 04:00:16;;;;;;;75.38;17.05;;;-0.40;89.80;;;;;;5067015;28;20610;-68
2020/12/26 04:02:43;;;;;;;75.75;16.60;;;-0.40;89.80;;;;;;5068012;28;20312;-68
2020/12/26 04:05:09;;;;;;;76.43;16.67;;;-0.40;90.80;;;;;;5066316;28;20293;-68
2020/12/26 04:07:36;;;;;;;74.07;15.48;;;-0.50;89.40;;;;;;5057463;28;20223;-67
2020/12/26 04:10:03;;;;;;;77.72;17.05;;;-0.50;90.80;;;;;;5053865;28;20213;-68
2020/12/26 04:12:29;;;;;;;74.63;16.08;;;-0.50;89.40;;;;;;5054382;28;20225;-67
2020/12/26 04:14:56;;;;;;;77.25;16.15;;;-0.50;90.20;;;;;;5054356;28;20213;-67
2020/12/26 04:17:23;;;;;;;75.88;17.95;;;-0.50;87.40;;;;;;5054100;28;20749;-67
2020/12/26 04:19:49;;;;;;;76.93;16.05;;;-0.50;88.50;;;;;;5053091;28;20233;-67
2020/12/26 04:22:16;;;;;;;76.45;16.38;;;-0.50;88.70;;;;;;5053868;28;20232;-68
2020/12/26 04:24:43;;;;;;;76.25;16.40;;;-0.50;86.40;;;;;;5053636;28;20254;-67
2020/12/26 04:27:10;;;;;;;78.88;15.73;;;-0.50;86.60;;;;;;5054112;28;20205;-67
2020/12/26 04:29:36;;;;;;;74.43;16.70;;;-0.50;87.10;;;;;;5053629;28;20205;-68
2020/12/26 04:32:02;;;;;;;75.45;16.95;;;-0.50;88.90;;;;;;5053950;28;20225;-68
2020/12/26 04:34:29;;;;;;;75.90;17.27;;;-0.50;88.80;;;;;;5053668;28;20245;-67
2020/12/26 04:36:55;;;;;;;75.05;16.55;;;-0.50;89.30;;;;;;5053505;28;20205;-68
2020/12/26 04:39:21;;;;;;;78.40;17.20;;;-0.50;89.30;;;;;;5053607;28;20764;-68
2020/12/26 04:41:49;;;;;;;81.57;17.55;;;-0.50;89.20;;;;;;5053490;28;20571;-68
2020/12/26 04:44:16;;;;;;;77.55;16.25;;;-0.50;89.40;;;;;;5053574;28;20300;-68
2020/12/26 04:46:43;;;;;;;78.70;16.13;;;-0.50;88.20;;;;;;5053520;28;20638;-68
2020/12/26 04:49:11;;;;;;;76.28;16.38;;;-0.60;88.20;;;;;;5053243;28;20228;-68
2020/12/26 04:51:39;;;;;;;78.30;15.95;;;-0.60;90.10;;;;;;5053126;28;20236;-68
2020/12/26 04:54:11;;;;;;;83.93;17.58;;;-0.60;90.20;;;;;;5053846;28;20210;-68
2020/12/26 04:56:42;;;;;;;74.25;15.57;;;-0.60;90.20;;;;;;5053423;28;20308;-68
2020/12/26 04:59:11;;;;;;;78.38;16.25;;;-0.60;90.40;;;;;;5053135;28;20237;-68
2020/12/26 05:01:40;;;;;;;77.40;16.58;;;-0.60;90.30;;;;;;5053368;28;20221;-68
2020/12/26 05:04:07;;;;;;;74.82;16.92;;;-0.60;90.80;;;;;;5053118;28;20292;-68
2020/12/26 05:06:44;;;;;;;76.28;16.50;;;-0.60;90.40;;;;;;5053322;28;20267;-68
2020/12/26 05:09:10;;;;;;;79.65;17.55;;;-0.60;89.00;;;;;;5053010;28;20197;-68
2020/12/26 05:11:36;;;;;;;77.65;16.02;;;-0.60;89.90;;;;;;5053113;28;20779;-68
2020/12/26 05:14:06;;;;;;;83.30;17.27;;;-0.60;90.90;;;;;;5052856;28;20205;-68
2020/12/26 05:16:33;;;;;;;78.00;15.98;;;-0.60;89.40;;;;;;5052987;28;20249;-68
2020/12/26 05:19:00;;;;;;;74.10;17.20;;;-0.60;89.90;;;;;;5052452;28;20225;-68
2020/12/26 05:21:26;;;;;;;81.68;17.63;;;-0.50;99.90;;;;;;5052879;28;20230;-68
2020/12/26 05:24:03;;;;;;;81.28;16.20;;;-0.50;99.90;;;;;;5052830;28;20245;-68
2020/12/26 05:26:31;;;;;;;80.85;17.67;;;-0.40;99.90;;;;;;5052970;28;20632;-68
2020/12/26 05:29:02;;;;;;;77.85;16.52;;;-0.40;99.90;;;;;;5052496;28;20251;-68
2020/12/26 05:31:56;;;;;;;83.68;17.08;;;-0.30;99.90;;;;;;5052031;28;20226;-68
2020/12/26 05:34:30;;;;;;;83.40;16.75;;;-0.30;99.90;;;;;;5052823;28;20288;-68
2020/12/26 05:36:58;;;;;;;80.05;16.55;;;-0.20;99.90;;;;;;5052546;28;20217;-68
2020/12/26 05:39:29;;;;;;;81.07;17.80;;;-0.20;99.90;;;;;;5052637;28;20222;-68
2020/12/26 05:41:55;;;;;;;85.43;18.67;;;-0.20;99.90;;;;;;5052398;28;20237;-68
2020/12/26 05:44:26;;;;;;;83.50;19.42;;;-0.20;99.90;;;;;;5052639;28;20212;-68
2020/12/26 05:46:57;;;;;;;76.13;16.60;;;-0.20;99.90;;;;;;5052416;28;20213;-68
2020/12/26 05:49:30;;;;;;;83.63;17.58;;;-0.20;99.90;;;;;;5052156;28;20244;-68
2020/12/26 05:51:59;;;;;;;78.65;17.50;;;-0.20;99.90;;;;;;5052118;28;20338;-68
2020/12/26 05:54:26;;;;;;;79.25;18.42;;;-0.20;99.90;;;;;;5052170;28;20580;-68
2020/12/26 05:57:12;;;;;;;83.60;19.30;;;-0.20;99.90;;;;;;5052034;28;20696;-68
2020/12/26 05:59:39;;;;;;;81.40;18.70;;;-0.20;99.90;;;;;;5051950;28;20260;-68
2020/12/26 06:02:24;;;;;;;84.88;17.92;;;-0.20;99.90;;;;;;5052077;28;20316;-68
2020/12/26 06:04:56;;;;;;;84.25;18.48;;;-0.20;97.80;;;;;;5052203;28;20201;-68
2020/12/26 06:07:24;;;;;;;84.05;19.30;;;-0.30;96.80;;;;;;5052135;28;20616;-68
2020/12/26 06:09:53;;;;;;;85.10;18.63;;;-0.30;94.00;;;;;;5051753;28;20226;-68
2020/12/26 06:12:20;;;;;;;76.25;16.80;;;-0.30;94.00;;;;;;5052021;28;20230;-68
2020/12/26 06:14:48;;;;;;;88.47;19.05;;;-0.30;93.90;;;;;;5051797;28;20205;-68
2020/12/26 06:17:26;;;;;;;80.45;18.27;;;-0.30;93.40;;;;;;5051801;28;20275;-68
2020/12/26 06:19:56;;;;;;;85.38;17.67;;;-0.40;93.60;;;;;;5051436;28;20229;-68
2020/12/26 06:22:23;;;;;;;81.22;17.65;;;-0.40;93.30;;;;;;5051892;28;20312;-68
2020/12/26 06:24:49;;;;;;;85.78;17.77;;;-0.50;93.10;;;;;;5051686;28;20586;-68
2020/12/26 06:27:16;;;;;;;83.07;19.98;;;-0.60;93.30;;;;;;5051748;28;20217;-68
2020/12/26 06:29:44;;;;;;;78.47;17.98;;;-0.60;92.70;;;;;;5051259;28;20205;-68
2020/12/26 06:32:12;;;;;;;80.57;18.58;;;-0.60;92.50;;;;;;5051735;28;20238;-68
2020/12/26 06:34:42;;;;;;;81.05;19.45;;;-0.70;92.60;;;;;;5051406;28;20668;-67
2020/12/26 06:37:11;;;;;;;81.15;17.10;;;-0.80;92.50;;;;;;5051714;28;20890;-68
2020/12/26 06:39:38;;;;;;;81.13;18.00;;;-0.80;92.60;;;;;;5051244;28;20217;-68
2020/12/26 06:42:16;;;;;;;86.95;20.30;;;-0.80;92.10;;;;;;5051223;28;20242;-68
2020/12/26 06:44:43;;;;;;;82.88;18.25;;;-0.90;92.40;;;;;;5051429;28;20209;-68
2020/12/26 06:47:35;;;;;;;86.50;18.95;;;-0.90;91.70;;;;;;5051339;28;20213;-68
2020/12/26 06:50:21;;;;;;;82.65;18.05;;;-0.90;91.80;;;;;;5051186;28;20213;-68
2020/12/26 06:52:47;;;;;;;77.78;16.73;;;-0.90;91.90;;;;;;5051480;28;20237;-68
2020/12/26 06:55:40;;;;;;;84.18;19.42;;;-0.90;92.40;;;;;;5051456;28;20205;-68
2020/12/26 06:58:12;;;;;;;82.05;17.55;;;-0.80;92.00;;;;;;5037346;28;20213;-68
2020/12/26 07:00:38;;;;;;;85.55;17.20;;;-0.80;91.90;;;;;;5051585;28;20217;-68
2020/12/26 07:03:25;;;;;;;83.85;17.85;;;-0.70;92.10;;;;;;5050921;28;20258;-68
2020/12/26 07:05:53;;;;;;;87.15;19.50;;;-0.70;92.30;;;;;;5051249;28;20713;-68
2020/12/26 07:08:28;;;;;;;78.40;16.05;;;-0.70;92.50;;;;;;5051142;28;20205;-68
2020/12/26 07:10:55;;;;;;;89.25;18.02;;;-0.70;92.40;;;;;;5051163;28;20221;-68
2020/12/26 07:13:44;;;;;;;82.18;18.00;;;-0.70;92.50;;;;;;5050964;28;20577;-68
2020/12/26 07:16:45;;;;;;;89.57;20.55;;;-0.70;92.80;;;;;;5051311;28;20202;-68
2020/12/26 07:19:40;;;;;;;86.93;19.83;;;-0.70;92.50;;;;;;5050759;28;20573;-68
2020/12/26 07:22:13;;;;;;;81.70;17.63;;;-0.70;92.60;;;;;;5051099;28;20229;-68
2020/12/26 07:24:40;;;;;;;83.60;19.25;;;-0.70;93.00;;;;;;5051080;28;20228;-68
2020/12/26 07:27:24;;;;;;;82.95;20.65;;;-0.60;92.80;;;;;;5051093;28;20205;-68
2020/12/26 07:30:04;;;;;;;85.78;18.70;;;-0.60;92.80;;;;;;5050621;28;20288;-67
2020/12/26 07:32:49;;;;;;;83.75;18.77;;;-0.70;93.60;;;;;;5051132;28;20312;-68
2020/12/26 07:35:25;;;;;;;84.68;18.65;;;-0.60;96.00;;;;;;5051065;28;20235;-68
2020/12/26 07:37:58;;;;;;;86.47;19.23;;;-0.60;95.50;;;;;;5051047;28;20209;-68
2020/12/26 07:40:26;;;;;;;81.68;19.17;;;-0.60;96.10;;;;;;5050560;28;20233;-68
2020/12/26 07:42:52;;;;;;;83.65;18.00;;;-0.60;95.60;;;;;;5050777;28;20299;-68
2020/12/26 07:45:21;;;;;;;88.30;20.10;;;-0.60;93.20;;;;;;5051064;28;20209;-68
2020/12/26 07:47:48;;;;;;;95.40;22.20;;;-0.60;93.10;;;;;;5050684;28;20209;-68
2020/12/26 07:50:16;;;;;;;96.40;22.00;;;-0.50;93.20;;;;;;5050574;28;20205;-67
2020/12/26 07:52:46;;;;;;;93.60;23.25;;;-0.40;93.80;;;;;;5050686;28;20225;-68
2020/12/26 07:55:13;;;;;;;87.30;20.00;;;-0.40;93.90;;;;;;5051979;28;20303;-68
2020/12/26 07:57:40;;;;;;;86.32;18.50;;;-0.30;93.70;;;;;;5054464;28;20251;-68
2020/12/26 08:00:07;;;;;;;92.20;21.15;;;-0.20;94.10;;;;;;5054348;28;20363;-67
2020/12/26 08:02:33;;;;;;;91.35;20.58;;;-0.10;95.20;;;;;;5054210;28;20226;-68
2020/12/26 08:04:59;;;;;;;87.82;19.52;;;0.00;94.30;;;;;;5054207;28;20681;-68
2020/12/26 08:07:31;;;;;;;93.82;20.20;;;0.00;94.50;;;;;;5054179;28;20205;-67
2020/12/26 08:09:58;;;;;;;91.45;20.00;;;0.00;95.10;;;;;;5054018;28;20202;-68
2020/12/26 08:12:26;;;;;;;88.00;20.77;;;0.10;94.80;;;;;;5054353;28;20652;-68
2020/12/26 08:14:59;;;;;;;95.82;22.80;;;0.10;95.40;;;;;;5054233;28;20582;-68
2020/12/26 08:17:27;;;;;;;94.30;21.42;;;0.10;95.00;;;;;;5054149;28;20213;-68
2020/12/26 08:20:00;;;;;;;99.95;22.92;;;0.10;95.30;;;;;;5053613;28;20621;-67
2020/12/26 08:22:26;;;;;;;97.85;21.48;;;0.20;96.00;;;;;;5054366;28;20236;-67
2020/12/26 08:25:06;;;;;;;106.88;24.00;;;0.20;96.20;;;;;;5054123;28;20206;-68
2020/12/26 08:27:33;;;;;;;98.22;22.02;;;0.30;96.20;;;;;;5054218;28;20368;-68
2020/12/26 08:30:03;;;;;;;106.22;23.15;;;0.30;96.10;;;;;;5053439;28;20691;-68
2020/12/26 08:32:33;;;;;;;116.10;24.10;;;0.40;98.80;;;;;;5053638;28;20236;-67
2020/12/26 08:35:02;;;;;;;103.18;23.90;;;0.50;99.20;;;;;;5053912;28;20233;-67
2020/12/26 08:37:32;;;;;;;94.65;21.98;;;0.50;99.50;;;;;;5053696;28;20744;-67
2020/12/26 08:40:00;;;;;;;118.20;24.40;;;0.50;99.50;;;;;;5053528;28;20226;-67
2020/12/26 08:42:28;;;;;;;108.72;25.30;;;0.50;99.60;;;;;;5053456;28;20315;-68
2020/12/26 08:44:55;;;;;;;106.85;24.50;;;0.60;99.70;;;;;;5053573;28;20213;-68
2020/12/26 08:47:32;;;;;;;110.35;24.85;;;0.60;99.90;;;;;;5053415;28;20225;-68
2020/12/26 08:49:59;;;;;;;106.53;23.98;;;0.70;97.00;;;;;;5039902;28;20553;-68
2020/12/26 08:52:26;;;;;;;111.95;23.40;;;0.70;97.20;;;;;;5033503;28;20317;-68
2020/12/26 08:55:03;;;;;;;108.60;24.02;;;0.70;96.80;;;;;;5033721;28;20234;-68
2020/12/26 08:57:29;;;;;;;103.18;24.35;;;0.80;97.20;;;;;;5033199;28;20206;-68
2020/12/26 09:00:15;;;;;;;111.43;24.65;;;0.80;97.30;;;;;;5033168;28;20594;-68
2020/12/26 09:02:46;;;;;;;141.32;28.98;;;0.90;97.30;;;;;;5056440;22;20222;-66
2020/12/26 09:05:26;;;;;;;104.53;25.33;;;0.90;97.40;;;;;;5034530;28;20202;-67
2020/12/26 09:08:03;;;;;;;89.30;21.15;;;1.10;97.50;;;;;;5035770;28;20210;-67
2020/12/26 09:10:30;;;;;;;83.35;19.90;;;1.30;97.80;;;;;;5033198;28;20202;-67
2020/12/26 09:13:00;;;;;;;87.43;19.63;;;1.50;98.40;;;;;;5033323;28;20237;-67
2020/12/26 09:15:47;;;;;;;82.95;17.75;;;1.60;96.90;;;;;;5033168;28;20210;-67
2020/12/26 09:18:16;;;;;;;79.70;16.83;;;1.60;96.60;;;;;;5032980;28;20206;-67
2020/12/26 09:20:47;;;;;;;75.43;16.15;;;1.70;96.10;;;;;;5032736;28;20225;-67
2020/12/26 09:23:14;;;;;;;75.38;15.18;;;1.80;95.40;;;;;;5032906;28;20466;-67
2020/12/26 09:25:40;;;;;;;75.57;14.70;;;1.90;94.50;;;;;;5032780;28;20214;-67
2020/12/26 09:28:06;;;;;;;84.75;18.40;;;1.90;94.80;;;;;;5031765;28;20206;-67
2020/12/26 09:30:33;;;;;;;82.45;19.05;;;2.00;93.00;;;;;;5032381;28;20234;-66
2020/12/26 09:33:00;;;;;;;81.93;17.77;;;2.00;92.30;;;;;;5032691;28;20280;-67
2020/12/26 09:35:26;;;;;;;80.47;18.20;;;2.00;90.50;;;;;;5032665;28;20217;-68
2020/12/26 09:37:53;;;;;;;82.05;18.02;;;2.00;89.40;;;;;;5032550;28;20256;-68
2020/12/26 09:40:25;;;;;;;87.05;19.73;;;2.00;88.30;;;;;;5032325;28;20716;-67
2020/12/26 09:42:52;;;;;;;87.00;19.35;;;2.00;84.60;;;;;;5032612;28;20234;-68
2020/12/26 09:45:18;;;;;;;85.32;19.48;;;2.00;86.10;;;;;;5032377;28;20202;-68
2020/12/26 09:47:46;;;;;;;92.60;19.80;;;2.10;88.60;;;;;;5032208;28;20213;-68
2020/12/26 09:50:12;;;;;;;75.88;16.95;;;2.20;88.10;;;;;;5032082;28;20454;-67
2020/12/26 09:52:39;;;;;;;82.10;17.48;;;2.30;90.40;;;;;;5032438;28;20586;-68
2020/12/26 09:55:06;;;;;;;109.20;31.20;;;2.40;90.70;;;;;;5032240;28;20207;-67
2020/12/26 09:57:33;;;;;;;85.72;18.58;;;2.50;91.60;;;;;;5032074;28;20677;-67
2020/12/26 09:59:59;;;;;;;81.20;15.75;;;2.50;92.90;;;;;;5031640;28;20229;-68
2020/12/26 10:02:26;;;;;;;76.18;15.23;;;2.50;92.50;;;;;;5032028;28;20244;-68
2020/12/26 10:04:53;;;;;;;79.20;14.85;;;2.50;94.40;;;;;;5032283;28;20662;-67
2020/12/26 10:07:20;;;;;;;72.43;14.75;;;2.50;93.00;;;;;;5032337;28;20206;-68
2020/12/26 10:09:46;;;;;;;81.03;15.30;;;2.70;94.60;;;;;;5031752;28;20202;-67
2020/12/26 10:12:13;;;;;;;81.85;15.95;;;2.80;93.80;;;;;;5031919;28;20265;-67
2020/12/26 10:14:39;;;;;;;82.35;19.02;;;2.90;84.40;;;;;;5031744;28;20399;-67
2020/12/26 10:17:05;;;;;;;80.05;17.77;;;3.00;84.80;;;;;;5032093;28;20659;-68
2020/12/26 10:19:32;;;;;;;77.85;18.23;;;3.00;84.90;;;;;;5031382;28;20376;-67
2020/12/26 10:21:59;;;;;;;76.10;16.90;;;3.10;83.20;;;;;;5031865;28;20257;-68
2020/12/26 10:24:25;;;;;;;81.90;19.92;;;3.20;81.60;;;;;;5031769;28;20577;-67
2020/12/26 10:26:52;;;;;;;73.72;15.13;;;3.30;85.80;;;;;;5032213;28;20222;-68
2020/12/26 10:29:18;;;;;;;73.20;14.90;;;3.30;89.70;;;;;;5031111;28;20207;-70
2020/12/26 10:31:44;;;;;;;74.13;13.85;;;3.20;90.00;;;;;;5031798;28;20713;-67
2020/12/26 10:34:11;;;;;;;71.05;12.82;;;3.10;87.20;;;;;;5031749;28;20300;-67
2020/12/26 10:36:42;;;;;;;76.13;14.20;;;3.10;89.40;;;;;;5031645;28;20240;-67
2020/12/26 10:39:09;;;;;;;74.15;13.38;;;3.10;90.30;;;;;;5031498;28;20222;-69
2020/12/26 10:41:35;;;;;;;75.72;14.50;;;3.30;89.80;;;;;;5030980;28;20209;-67
2020/12/26 10:44:02;;;;;;;81.78;15.98;;;3.40;89.50;;;;;;5031418;28;20206;-67
2020/12/26 10:46:29;;;;;;;73.80;12.85;;;3.60;91.10;;;;;;5031473;28;20305;-67
2020/12/26 10:48:55;;;;;;;75.72;12.90;;;3.70;92.40;;;;;;5031600;28;20202;-67
2020/12/26 10:51:21;;;;;;;75.53;15.88;;;3.80;92.30;;;;;;5030807;28;20242;-67
2020/12/26 10:53:48;;;;;;;74.18;12.43;;;3.80;90.90;;;;;;5031500;28;20237;-67
2020/12/26 10:56:15;;;;;;;78.03;14.90;;;4.00;90.80;;;;;;5031193;28;20236;-69
2020/12/26 10:58:41;;;;;;;76.95;12.75;;;4.20;93.10;;;;;;5031477;28;20206;-67
2020/12/26 11:01:08;;;;;;;72.30;13.18;;;4.30;94.60;;;;;;5031131;28;20272;-67
2020/12/26 11:03:34;;;;;;;77.85;13.25;;;4.40;94.40;;;;;;5031230;28;20238;-67
2020/12/26 11:06:00;;;;;;;77.95;14.73;;;4.60;92.70;;;;;;5031794;28;20202;-67
2020/12/26 11:08:27;;;;;;;78.70;15.45;;;4.80;94.00;;;;;;5037497;28;20254;-68
2020/12/26 11:10:53;;;;;;;77.70;15.77;;;5.00;93.90;;;;;;5033277;28;20297;-68
2020/12/26 11:13:20;;;;;;;70.05;14.63;;;5.30;94.60;;;;;;5031209;28;20223;-68
2020/12/26 11:15:46;;;;;;;73.93;15.95;;;5.50;95.20;;;;;;5031334;28;20202;-68
2020/12/26 11:18:13;;;;;;;79.28;16.20;;;5.70;92.50;;;;;;5031407;28;20754;-67
2020/12/26 11:20:39;;;;;;;75.65;15.00;;;6.00;93.60;;;;;;5031026;28;20602;-69
2020/12/26 11:23:05;;;;;;;70.95;13.98;;;6.20;91.80;;;;;;5031033;28;20237;-67
2020/12/26 11:25:32;;;;;;;70.28;12.65;;;6.20;83.70;;;;;;5031010;28;20215;-68
2020/12/26 11:27:58;;;;;;;70.70;13.10;;;6.20;74.60;;;;;;5030865;28;20241;-68
2020/12/26 11:30:25;;;;;;;76.90;11.48;;;6.30;76.90;;;;;;5032168;28;20249;-68
2020/12/26 11:32:51;;;;;;;73.45;13.88;;;6.40;65.40;;;;;;5035044;28;20258;-69
2020/12/26 11:35:18;;;;;;;70.97;12.50;;;6.70;72.40;;;;;;5035158;28;20207;-68
2020/12/26 11:37:44;;;;;;;71.90;14.43;;;6.90;62.10;;;;;;5034863;28;20219;-68
2020/12/26 11:40:10;;;;;;;69.32;11.07;;;6.90;35.60;;;;;;5034346;28;20223;-67
2020/12/26 11:42:39;;;;;;;69.45;11.23;;;6.90;44.90;;;;;;5034982;28;20231;-67
2020/12/26 11:45:06;;;;;;;68.60;12.13;;;6.80;40.90;;;;;;5034758;28;20210;-67
2020/12/26 11:47:33;;;;;;;77.68;12.45;;;7.00;34.20;;;;;;5034776;28;20214;-68
2020/12/26 11:50:00;;;;;;;73.50;13.98;;;7.30;28.10;;;;;;5034379;28;20505;-66
2020/12/26 11:52:26;;;;;;;68.05;11.65;;;7.30;1.00;;;;;;5034600;28;20222;-67
2020/12/26 11:54:53;;;;;;;69.32;12.90;;;7.30;1.00;;;;;;5034446;28;20224;-68
2020/12/26 11:57:19;;;;;;;69.40;10.87;;;7.20;1.00;;;;;;5034709;28;20686;-67
2020/12/26 11:59:45;;;;;;;78.60;13.43;;;7.20;1.00;;;;;;5034306;28;20484;-67
2020/12/26 12:02:12;;;;;;;69.00;12.53;;;7.20;1.00;;;;;;5034428;28;20299;-67
2020/12/26 12:04:39;;;;;;;71.20;12.85;;;7.40;1.00;;;;;;5034446;28;20455;-70
2020/12/26 12:07:06;;;;;;;69.60;13.05;;;7.70;1.00;;;;;;5034261;28;20219;-67
2020/12/26 12:09:32;;;;;;;69.60;12.30;;;7.90;1.00;;;;;;5034072;28;20234;-66
2020/12/26 12:11:58;;;;;;;68.17;11.67;;;8.10;1.00;;;;;;5034056;28;20468;-68
2020/12/26 12:14:25;;;;;;;66.47;12.27;;;8.30;1.00;;;;;;5034147;28;20450;-68
2020/12/26 12:16:51;;;;;;;68.00;11.63;;;8.90;1.00;;;;;;5034276;28;20459;-67
2020/12/26 12:19:17;;;;;;;67.00;10.80;;;9.30;1.00;;;;;;5034209;28;20530;-68
2020/12/26 12:21:46;;;;;;;66.13;10.60;;;9.30;1.00;;;;;;5033581;28;20842;-67
2020/12/26 12:24:13;;;;;;;64.87;10.17;;;9.00;1.00;;;;;;5034516;28;20459;-67
2020/12/26 12:26:39;;;;;;;65.00;10.37;;;8.50;1.00;;;;;;5034200;28;20536;-67
2020/12/26 12:29:05;;;;;;;64.83;8.13;;;8.00;1.00;;;;;;5034500;28;20450;-67
2020/12/26 12:31:37;;;;;;;64.67;8.53;;;7.60;1.00;;;;;;5034014;28;20892;-67
2020/12/26 12:34:03;;;;;;;64.10;9.47;;;7.30;1.00;;;;;;5034207;28;20508;-68
2020/12/26 12:36:30;;;;;;;65.40;8.73;;;7.10;1.00;;;;;;5034099;28;20458;-68